Flight Track Log - Related Links

Times and Time Zones

All times are in EDT time to prevent confusion due to time zone crossing. See the FLG4333 flight status page for this flight to view local times or setup timezone preferences in your user account.

Time Position Orientation Groundspeed Altitude Reporting Facility
EDT Latitude Longitude Course Direction KTS MPH feet Rate Location/Type
Thu 10:17:17 AM 35.0500 -89.9667 338° Northwest 171 197 800  Level KMEM
Thu 10:18:02 AM 35.0833 -89.9833 338° Northwest 179 206 1,900 1,588 Climbing KMEM
Thu 10:18:59 AM 35.1500 -90.0000 348° North 278 320 3,500 2,319 Climbing KMEM
Thu 10:20:01 AM 35.2333 -90.0167 351° North 274 315 6,500 2,777 Climbing KMEM
Thu 10:21:00 AM 35.3000 -90.0167 360° North 269 310 9,100 2,231 Climbing KMEM
Thu 10:22:02 AM 35.3908 -90.0233 357° North 313 360 11,000 1,623 Climbing Memphis Center
Thu 10:23:02 AM 35.4783 -90.0281 357° North 313 360 12,400 1,450 Climbing Memphis Center
Thu 10:24:02 AM 35.5722 -90.0356 356° North 325 374 13,900 1,600 Climbing Memphis Center
Thu 10:25:02 AM 35.6722 -90.0403 358° North 343 395 15,600 1,400 Climbing Memphis Center
Thu 10:26:02 AM 35.7558 -90.0475 356° North 340 391 16,700 1,100 Climbing Memphis Center
Thu 10:27:02 AM 35.8539 -90.0600 354° North 348 400 17,800 1,200 Climbing Memphis Center
Thu 10:28:02 AM 35.9622 -90.0697 356° North 360 414 19,100 1,250 Climbing Memphis Center
Thu 10:29:02 AM 36.0686 -90.0847 353° North 373 429 20,300 1,050 Climbing Memphis Center
Thu 10:30:02 AM 36.1769 -90.0947 356° North 378 435 21,200 800 Climbing Memphis Center
Thu 10:31:02 AM 36.2856 -90.1072 355° North 384 442 21,900 700 Climbing Memphis Center
Thu 10:32:02 AM 36.3961 -90.1172 356° North 389 448 22,600 750 Climbing Memphis Center
Thu 10:33:02 AM 36.5086 -90.1272 356° North 394 453 23,400 850 Climbing Memphis Center
Thu 10:34:02 AM 36.6211 -90.1397 355° North 400 460 24,300 800 Climbing Memphis Center
Thu 10:35:02 AM 36.7317 -90.1472 357° North 400 460 25,000 621 Climbing Memphis Center
Thu 10:36:56 AM 36.9394 -90.1628 357° North 405 466 26,100 580 Climbing Kansas City Center
Thu 10:37:58 AM 37.0778 -90.1753 356° North 411 473 26,700 532 Climbing Kansas City Center
Thu 10:39:00 AM 37.1953 -90.1861 356° North 418 481 27,200 484 Climbing Kansas City Center
Thu 10:40:02 AM 37.3119 -90.1975 356° North 419 482 27,700 387 Climbing Kansas City Center
Thu 10:41:04 AM 37.4372 -90.2097 356° North 419 482 28,000 145 Climbing Kansas City Center
Thu 10:42:06 AM 37.5556 -90.2208 356° North 425 489 28,000  Level Kansas City Center
Thu 10:43:08 AM 37.6753 -90.2336 355° North 430 495 28,000 339 Level Kansas City Center
Thu 10:44:10 AM 37.7917 -90.2569 351° North 427 491 28,700 816 Climbing Kansas City Center
Thu 10:45:13 AM 37.9036 -90.2817 350° North 413 475 29,700 624 Climbing Kansas City Center
Thu 10:46:15 AM 38.0128 -90.3047 351° North 401 461 30,000 145 Climbing Kansas City Center
Thu 10:47:17 AM 38.1464 -90.3322 351° North 405 466 30,000  Level Kansas City Center
Thu 10:48:19 AM 38.2583 -90.3561 350° North 406 467 30,000  Level Kansas City Center
Thu 10:49:21 AM 38.3692 -90.3783 351° North 405 466 30,000  Level Kansas City Center
Thu 10:50:23 AM 38.4769 -90.4011 351° North 406 467 30,000  Level Kansas City Center
Thu 10:51:25 AM 38.6108 -90.4306 350° North 406 467 30,000  Level Kansas City Center
Thu 10:52:27 AM 38.7253 -90.4572 350° North 414 476 30,000  Level Kansas City Center
Thu 10:53:29 AM 38.8386 -90.4800 351° North 415 478 30,000  Level Kansas City Center
Thu 10:54:31 AM 38.9483 -90.5203 344° North 389 448 30,000  Level Kansas City Center
Thu 10:55:33 AM 39.0361 -90.5558 343° North 388 447 30,000  Level Kansas City Center
Thu 10:56:35 AM 39.1608 -90.6078 342° North 391 450 30,000  Level Kansas City Center
Thu 10:57:37 AM 39.2644 -90.6506 342° North 391 450 30,000  Level Kansas City Center
Thu 10:58:39 AM 39.3683 -90.6936 342° North 391 450 30,000  Level Kansas City Center
Thu 10:59:43 AM 39.4722 -90.7364 342° North 392 451 30,000  Level Kansas City Center
Thu 11:00:45 AM 39.5769 -90.7803 342° North 394 453 30,000  Level Kansas City Center
Thu 11:01:47 AM 39.7031 -90.8328 342° North 397 457 30,000  Level Kansas City Center
Thu 11:02:49 AM 39.8056 -90.8767 342° North 396 456 30,000  Level Kansas City Center
Thu 11:03:51 AM 39.9117 -90.9208 342° North 397 457 30,000  Level Kansas City Center
Thu 11:04:53 AM 40.0161 -90.9650 342° North 394 453 30,000  Level Kansas City Center
Thu 11:05:55 AM 40.1333 -91.0147 342° North 390 449 30,000  Level Kansas City Center
Thu 11:06:57 AM 40.2367 -91.0586 342° North 392 451 30,000  Level Kansas City Center
Thu 11:07:59 AM 40.3486 -91.1053 342° North 390 449 30,000  Level Kansas City Center
Thu 11:09:01 AM 40.4517 -91.1494 342° North 389 448 30,000  Level Kansas City Center
Thu 11:10:03 AM 40.5561 -91.1944 342° North 391 450 30,000  Level Kansas City Center
Thu 11:11:05 AM 40.6608 -91.2392 342° North 392 451 30,000  Level Kansas City Center
Thu 11:12:12 AM 40.7856 -91.2936 342° North 391 450 30,000  Level Chicago Center
Thu 11:13:14 AM 40.8922 -91.3389 342° North 392 451 30,000  Level Chicago Center
Thu 11:14:16 AM 40.9933 -91.3836 342° North 390 449 30,000  Level Chicago Center
Thu 11:15:18 AM 41.0969 -91.4300 341° North 390 449 30,000  Level Chicago Center
Thu 11:16:20 AM 41.2011 -91.4744 342° North 390 449 30,000  Level Chicago Center
Thu 11:17:22 AM 41.3100 -91.5236 341° North 392 451 30,000  Level Chicago Center
Thu 11:18:24 AM 41.4131 -91.5661 343° North 391 450 30,000  Level Chicago Center
Thu 11:19:26 AM 41.5144 -91.6150 340° North 390 449 30,000  Level Chicago Center
Thu 11:20:28 AM 41.6292 -91.6972 332° Northwest 393 452 30,000  Level Chicago Center
Thu 11:21:30 AM 41.7231 -91.7647 332° Northwest 389 448 30,000  Level Chicago Center
Thu 11:22:32 AM 41.8169 -91.8342 331° Northwest 387 445 30,000  Level Chicago Center
Thu 11:23:34 AM 41.9119 -91.9094 329° Northwest 395 455 30,000  Level Chicago Center
Thu 11:24:36 AM 42.0064 -91.9803 331° Northwest 391 450 30,000  Level Chicago Center
Thu 11:25:38 AM 42.1206 -92.0664 331° Northwest 392 451 30,000  Level Chicago Center
Thu 11:26:40 AM 42.2153 -92.1381 331° Northwest 392 451 30,000  Level Chicago Center
Thu 11:27:42 AM 42.3103 -92.2089 331° Northwest 391 450 30,000  Level Chicago Center
Thu 11:28:44 AM 42.4042 -92.2833 330° Northwest 392 451 30,000  Level Chicago Center
Thu 11:29:46 AM 42.4992 -92.3553 331° Northwest 392 451 30,000  Level Chicago Center
Thu 11:30:48 AM 42.5919 -92.4311 329° Northwest 390 449 30,000  Level Chicago Center
Thu 11:31:50 AM 42.6986 -92.5303 326° Northwest 388 447 30,000  Level Chicago Center
Thu 11:32:52 AM 42.7894 -92.6136 326° Northwest 393 452 30,000  Level Chicago Center
Thu 11:33:54 AM 42.8789 -92.6972 326° Northwest 392 451 30,000  Level Chicago Center
Thu 11:35:19 AM 43.0061 -92.8144 326° Northwest 396 456 30,000 -449 Level Minneapolis Center
Thu 11:36:21 AM 43.0947 -92.8983 325° Northwest 393 452 28,900 -1,355 Descending Minneapolis Center
Thu 11:37:23 AM 43.1856 -92.9828 326° Northwest 395 455 27,200 -1,790 Descending Minneapolis Center
Thu 11:38:25 AM 43.2942 -93.0822 326° Northwest 394 453 25,200 -1,548 Descending Minneapolis Center
Thu 11:39:27 AM 43.3908 -93.1367 338° Northwest 387 445 24,000 -919 Descending Minneapolis Center
Thu 11:40:29 AM 43.4931 -93.1475 356° North 371 427 23,300 -1,355 Descending Minneapolis Center
Thu 11:41:31 AM 43.6078 -93.1631 354° North 376 433 21,200 -1,935 Descending Minneapolis Center
Thu 11:42:33 AM 43.7103 -93.1728 356° North 373 429 19,300 -1,790 Descending Minneapolis Center
Thu 11:43:35 AM 43.8094 -93.1819 356° North 363 418 17,500 -1,790 Descending Minneapolis Center
Thu 11:44:37 AM 43.9106 -93.1892 357° North 360 414 15,600 -1,839 Descending Minneapolis Center
Thu 11:45:39 AM 44.0092 -93.2008 355° North 355 409 13,700 -2,032 Descending Minneapolis Center
Thu 11:46:41 AM 44.1219 -93.2111 356° North 337 388 11,400 -1,790 Descending Minneapolis Center
Thu 11:47:43 AM 44.2125 -93.2206 356° North 327 376 10,000 -677 Descending Minneapolis Center
Thu 11:48:45 AM 44.3033 -93.2150 North 328 377 10,000  Level Minneapolis Center
Thu 11:49:47 AM 44.3964 -93.2061 North 336 387 10,000  Level Minneapolis Center
Thu 11:50:50 AM 44.4881 -93.1969 North 333 383 10,000  Level Minneapolis Center
Thu 11:51:52 AM 44.5803 -93.1875 North 333 383 10,000  Level Minneapolis Center
Thu 11:52:54 AM 44.6856 -93.2167 349° North 327 376 10,000 -145 Level Minneapolis Center
Thu 11:53:56 AM 44.7658 -93.2664 336° Northwest 315 362 9,700 -919 Descending Minneapolis Center
Thu 11:54:58 AM 44.8314 -93.3278 326° Northwest 278 320 8,100 -1,355 Descending Minneapolis Center
Thu 11:56:00 AM 44.8694 -93.4175 301° West 269 310 6,900 -1,306 Descending Minneapolis Center
Thu 11:57:02 AM 44.9103 -93.5042 304° West 266 306 5,400 -1,210 Descending Minneapolis Center
Thu 11:58:04 AM 44.9769 -93.5081 358° North 241 277 4,400 -677 Descending Minneapolis Center
Thu 11:59:06 AM 44.9872 -93.4342 79° East 203 234 4,000 -576 Descending Minneapolis Center
Thu 12:00:09 PM 44.9558 -93.3672 124° Southeast 204 235 3,200 -912 Descending Minneapolis Center
Thu 12:01:11 PM 44.9250 -93.2953 121° Southeast 169 194 2,100 -871 Descending Minneapolis Center
Thu 12:02:13 PM 44.9047 -93.2478 121° Southeast 142 163 1,400 -677 Descending Minneapolis Center
Thu 12:04:00 PM 44.8820 -93.2218 55° Northeast  Level Estimated
Thu 12:11:00 PM 44.8820 -93.2218 55° Northeast  Level Estimated

Login

Don't have an account? Register now (free) for customized features, flight alerts, and more!